createdAt,value
2023-03-02T00:00:48.591Z,4.60
2023-03-02T00:01:48.592Z,6.80
2023-03-02T00:02:48.688Z,5.50
2023-03-02T00:03:48.648Z,6.40
2023-03-02T00:04:48.594Z,5.30
2023-03-02T00:05:48.550Z,5.40
2023-03-02T00:06:48.554Z,6.30
2023-03-02T00:07:48.536Z,5.30
2023-03-02T00:08:48.511Z,8.70
2023-03-02T00:09:48.509Z,8.00
2023-03-02T00:10:48.488Z,7.40
2023-03-02T00:11:48.481Z,7.20
2023-03-02T00:12:48.466Z,6.80
2023-03-02T00:13:48.458Z,3.90
2023-03-02T00:14:48.444Z,5.20
2023-03-02T00:15:48.497Z,5.30
2023-03-02T00:16:48.432Z,5.90
2023-03-02T00:17:48.415Z,5.40
2023-03-02T00:18:48.413Z,4.40
2023-03-02T00:19:48.389Z,5.20
2023-03-02T00:20:48.396Z,5.70
2023-03-02T00:21:48.370Z,5.10
2023-03-02T00:22:48.363Z,6.00
2023-03-02T00:23:48.379Z,5.20
2023-03-02T00:24:48.358Z,5.10
2023-03-02T00:25:48.329Z,5.30
2023-03-02T00:26:48.344Z,5.00
2023-03-02T00:27:48.305Z,3.20
2023-03-02T00:28:48.295Z,3.40
2023-03-02T00:29:48.288Z,3.20
2023-03-02T00:30:48.277Z,3.50
2023-03-02T00:31:48.309Z,3.70
2023-03-02T00:32:48.269Z,6.50
2023-03-02T00:33:48.242Z,4.70
2023-03-02T00:34:48.233Z,5.50
2023-03-02T00:35:48.240Z,5.20
2023-03-02T00:36:48.212Z,4.80
2023-03-02T00:37:48.222Z,5.00
2023-03-02T00:38:48.211Z,4.40
2023-03-02T00:39:48.221Z,3.40
2023-03-02T00:40:48.169Z,4.20
2023-03-02T00:41:48.158Z,4.70
2023-03-02T00:42:48.149Z,4.20
2023-03-02T00:43:48.153Z,3.00
2023-03-02T00:44:48.141Z,2.70
2023-03-02T00:45:48.116Z,3.50
2023-03-02T00:46:48.165Z,3.40
2023-03-02T00:47:48.093Z,3.80
2023-03-02T00:48:48.097Z,3.40
2023-03-02T00:49:48.090Z,3.40
2023-03-02T00:50:48.071Z,5.20
2023-03-02T00:51:48.063Z,6.80
2023-03-02T00:52:48.050Z,5.00
2023-03-02T00:53:48.029Z,5.80
2023-03-02T00:54:48.021Z,5.40
2023-03-02T00:55:48.037Z,5.90
2023-03-02T00:56:48.020Z,6.80
2023-03-02T00:57:47.999Z,5.60
2023-03-02T00:58:47.982Z,4.90
2023-03-02T00:59:47.967Z,4.60
2023-03-02T01:00:47.957Z,3.30
2023-03-02T01:01:47.958Z,3.50
2023-03-02T01:02:48.091Z,3.80
2023-03-02T01:03:47.933Z,4.40
2023-03-02T01:04:47.922Z,4.60
2023-03-02T01:05:47.909Z,4.00
2023-03-02T01:06:47.902Z,4.00
2023-03-02T01:07:47.902Z,5.00
2023-03-02T01:08:47.888Z,3.60
2023-03-02T01:09:47.873Z,5.20
2023-03-02T01:10:47.860Z,5.70
2023-03-02T01:11:47.870Z,5.10
2023-03-02T01:12:47.852Z,5.10
2023-03-02T01:13:47.828Z,5.50
2023-03-02T01:14:47.853Z,5.90
2023-03-02T01:15:47.883Z,5.30
2023-03-02T01:16:47.804Z,5.10
2023-03-02T01:17:47.784Z,4.20
2023-03-02T01:18:47.787Z,4.10
2023-03-02T01:19:47.765Z,4.70
2023-03-02T01:20:47.763Z,4.10
2023-03-02T01:21:47.743Z,3.30
2023-03-02T01:22:47.754Z,3.20
2023-03-02T01:23:47.733Z,3.50
2023-03-02T01:24:47.735Z,2.60
2023-03-02T01:25:47.710Z,3.20
2023-03-02T01:26:47.695Z,2.80
2023-03-02T01:27:47.821Z,3.20
2023-03-02T01:28:49.442Z,2.70
2023-03-02T01:29:47.673Z,2.40
2023-03-02T01:30:47.662Z,2.30
2023-03-02T01:31:47.735Z,2.70
2023-03-02T01:32:47.631Z,2.90
2023-03-02T01:33:47.725Z,2.40
2023-03-02T01:34:47.607Z,2.10
2023-03-02T01:35:47.666Z,1.80
2023-03-02T01:36:47.629Z,2.10
2023-03-02T01:37:47.578Z,3.90
2023-03-02T01:38:47.638Z,2.90
2023-03-02T01:39:47.574Z,3.00
2023-03-02T01:40:47.545Z,2.80
2023-03-02T01:41:47.614Z,2.80
2023-03-02T01:42:47.541Z,3.40
2023-03-02T01:43:47.584Z,4.40
2023-03-02T01:44:47.508Z,3.30
2023-03-02T01:45:47.612Z,4.00
2023-03-02T01:46:47.477Z,2.80
2023-03-02T01:47:47.529Z,3.30
2023-03-02T01:48:47.486Z,2.30
2023-03-02T01:49:47.459Z,2.90
2023-03-02T01:50:47.436Z,3.50
2023-03-02T01:51:47.445Z,2.60
2023-03-02T01:52:47.415Z,3.80
2023-03-02T01:53:47.447Z,3.30
2023-03-02T01:54:47.406Z,3.90
2023-03-02T01:55:47.405Z,3.60
2023-03-02T01:56:47.379Z,2.70
2023-03-02T01:57:47.367Z,4.30
2023-03-02T01:58:47.357Z,5.70
2023-03-02T01:59:47.407Z,6.20
2023-03-02T02:00:47.440Z,4.80
2023-03-02T02:01:47.328Z,5.10
2023-03-02T02:02:47.308Z,4.80
2023-03-02T02:03:47.363Z,4.80
2023-03-02T02:04:47.303Z,4.50
2023-03-02T02:05:47.332Z,5.50
2023-03-02T02:06:47.270Z,3.90
2023-03-02T02:07:47.254Z,4.60
2023-03-02T02:08:47.245Z,4.40
2023-03-02T02:09:47.247Z,4.50
2023-03-02T02:10:47.223Z,5.20
2023-03-02T02:11:47.258Z,4.80
2023-03-02T02:12:47.209Z,4.70
2023-03-02T02:13:47.199Z,4.90
2023-03-02T02:14:47.175Z,5.20
2023-03-02T02:15:47.196Z,4.90
2023-03-02T02:16:47.265Z,4.70
2023-03-02T02:17:47.192Z,6.70
2023-03-02T02:18:47.134Z,5.10
2023-03-02T02:19:47.135Z,4.50
2023-03-02T02:20:47.110Z,4.70
2023-03-02T02:21:47.113Z,2.90
2023-03-02T02:22:47.115Z,3.30
2023-03-02T02:23:47.128Z,3.50
2023-03-02T02:24:47.113Z,4.60
2023-03-02T02:25:47.058Z,3.40
2023-03-02T02:26:47.070Z,3.30
2023-03-02T02:27:47.043Z,2.30
2023-03-02T02:28:47.063Z,2.30
2023-03-02T02:29:47.124Z,3.40
2023-03-02T02:30:47.040Z,4.00
2023-03-02T02:31:47.119Z,3.60
2023-03-02T02:32:47.067Z,3.30
2023-03-02T02:33:46.980Z,4.70
2023-03-02T02:34:46.964Z,2.90
2023-03-02T02:35:47.029Z,3.40
2023-03-02T02:36:46.970Z,2.20
2023-03-02T02:37:46.946Z,2.70
2023-03-02T02:38:46.922Z,2.00
2023-03-02T02:39:46.916Z,2.10
2023-03-02T02:40:46.898Z,3.00
2023-03-02T02:41:46.944Z,3.40
2023-03-02T02:42:46.895Z,3.90
2023-03-02T02:43:46.880Z,3.50
2023-03-02T02:44:46.859Z,3.50
2023-03-02T02:45:46.936Z,2.40
2023-03-02T02:46:46.834Z,3.00
2023-03-02T02:47:46.883Z,2.80
2023-03-02T02:48:46.846Z,2.30
2023-03-02T02:49:46.807Z,3.10
2023-03-02T02:50:46.807Z,2.40
2023-03-02T02:51:46.785Z,2.30
2023-03-02T02:52:46.771Z,2.00
2023-03-02T02:53:46.807Z,1.40
2023-03-02T02:54:46.766Z,2.60
2023-03-02T02:55:46.750Z,2.10
2023-03-02T02:56:46.726Z,4.10
2023-03-02T02:57:46.720Z,3.10
2023-03-02T02:58:46.701Z,2.30
2023-03-02T02:59:46.747Z,3.50
2023-03-02T03:00:46.712Z,3.50
2023-03-02T03:01:46.676Z,4.70
2023-03-02T03:02:46.663Z,3.90
2023-03-02T03:03:46.678Z,4.50
2023-03-02T03:04:46.736Z,3.30
2023-03-02T03:05:46.676Z,3.50
2023-03-02T03:06:46.626Z,3.10
2023-03-02T03:07:46.619Z,3.60
2023-03-02T03:08:46.615Z,3.50
2023-03-02T03:09:46.642Z,4.10
2023-03-02T03:10:46.590Z,4.20
2023-03-02T03:11:46.587Z,4.80
2023-03-02T03:12:46.565Z,3.30
2023-03-02T03:13:46.545Z,2.90
2023-03-02T03:14:46.533Z,3.50
2023-03-02T03:15:46.523Z,3.40
2023-03-02T03:16:46.593Z,3.50
2023-03-02T03:17:46.547Z,4.60
2023-03-02T03:18:46.487Z,3.90
2023-03-02T03:19:46.537Z,5.40
2023-03-02T03:20:46.463Z,4.80
2023-03-02T03:21:46.472Z,4.30
2023-03-02T03:22:46.456Z,3.80
2023-03-02T03:23:46.501Z,3.80
2023-03-02T03:24:46.422Z,3.90
2023-03-02T03:25:46.427Z,3.70
2023-03-02T03:26:46.395Z,4.00
2023-03-02T03:27:46.392Z,3.20
2023-03-02T03:28:46.382Z,3.20
2023-03-02T03:29:46.399Z,4.00
2023-03-02T03:30:46.388Z,3.30
2023-03-02T03:31:46.341Z,2.50
2023-03-02T03:32:46.346Z,2.50
2023-03-02T03:33:46.318Z,3.20
2023-03-02T03:34:46.314Z,2.90
2023-03-02T03:35:46.490Z,2.00
2023-03-02T03:36:46.284Z,3.10
2023-03-02T03:37:46.274Z,3.10
2023-03-02T03:38:46.259Z,2.30
2023-03-02T03:39:46.268Z,2.90
2023-03-02T03:40:46.235Z,2.90
2023-03-02T03:41:46.263Z,3.10
2023-03-02T03:42:46.251Z,2.00
2023-03-02T03:43:46.216Z,2.10
2023-03-02T03:44:46.189Z,2.10
2023-03-02T03:45:46.250Z,3.20
2023-03-02T03:46:46.182Z,2.40
2023-03-02T03:47:46.207Z,2.80
2023-03-02T03:48:46.164Z,3.30
2023-03-02T03:49:46.143Z,2.20
2023-03-02T03:50:46.126Z,3.40
2023-03-02T03:51:46.146Z,2.30
2023-03-02T03:52:46.111Z,2.50
2023-03-02T03:53:46.129Z,4.00
2023-03-02T03:54:46.097Z,3.40
2023-03-02T03:55:46.069Z,3.70
2023-03-02T03:56:46.069Z,2.00
2023-03-02T03:57:46.064Z,2.20
2023-03-02T03:58:46.056Z,2.50
2023-03-02T03:59:46.073Z,1.80
2023-03-02T04:00:46.015Z,2.80
2023-03-02T04:01:46.124Z,1.80
2023-03-02T04:02:46.068Z,4.00
2023-03-02T04:03:45.988Z,2.00
2023-03-02T04:04:45.981Z,2.50
2023-03-02T04:05:46.008Z,2.30
2023-03-02T04:06:45.954Z,1.70
2023-03-02T04:07:45.963Z,1.70
2023-03-02T04:08:45.926Z,2.00
2023-03-02T04:09:45.947Z,1.90
2023-03-02T04:10:45.906Z,2.70
2023-03-02T04:11:45.952Z,3.50
2023-03-02T04:12:45.891Z,2.00
2023-03-02T04:13:45.871Z,3.20
2023-03-02T04:14:45.855Z,3.20
2023-03-02T04:15:47.124Z,2.30
2023-03-02T04:16:45.843Z,2.60
2023-03-02T04:17:45.894Z,2.00
2023-03-02T04:18:45.811Z,3.40
2023-03-02T04:19:45.875Z,1.80
2023-03-02T04:20:45.794Z,3.50
2023-03-02T04:21:45.781Z,2.60
2023-03-02T04:22:45.775Z,2.20
2023-03-02T04:23:45.820Z,3.20
2023-03-02T04:24:45.743Z,2.10
2023-03-02T04:25:45.737Z,2.00
2023-03-02T04:26:45.744Z,2.60
2023-03-02T04:27:45.729Z,1.90
2023-03-02T04:28:45.709Z,2.80
2023-03-02T04:29:45.760Z,2.10
2023-03-02T04:30:45.749Z,2.40
2023-03-02T04:31:45.699Z,3.10
2023-03-02T04:32:45.661Z,2.50
2023-03-02T04:33:45.663Z,2.10
2023-03-02T04:34:45.641Z,2.00
2023-03-02T04:35:45.722Z,3.10
2023-03-02T04:36:45.620Z,2.50
2023-03-02T04:37:45.630Z,3.00
2023-03-02T04:38:45.600Z,2.50
2023-03-02T04:39:45.621Z,3.80
2023-03-02T04:40:45.580Z,1.30
2023-03-02T04:41:45.623Z,2.10
2023-03-02T04:42:45.559Z,3.00
2023-03-02T04:43:45.549Z,2.10
2023-03-02T04:44:45.566Z,2.50
2023-03-02T04:45:45.541Z,2.60
2023-03-02T04:46:45.580Z,1.70
2023-03-02T04:47:45.564Z,1.70
2023-03-02T04:48:45.491Z,2.50
2023-03-02T04:49:45.489Z,2.40
2023-03-02T04:50:45.473Z,2.50
2023-03-02T04:51:45.474Z,2.80
2023-03-02T04:52:45.451Z,2.40
2023-03-02T04:53:45.488Z,1.70
2023-03-02T04:54:45.437Z,2.10
2023-03-02T04:55:45.443Z,2.40
2023-03-02T04:56:45.407Z,2.30
2023-03-02T04:57:45.398Z,3.30
2023-03-02T04:58:45.384Z,2.20
2023-03-02T04:59:45.461Z,2.90
2023-03-02T05:00:45.409Z,1.60
2023-03-02T05:01:45.402Z,1.90
2023-03-02T05:02:45.367Z,2.20
2023-03-02T05:03:45.332Z,3.00
2023-03-02T05:04:45.432Z,1.50
2023-03-02T05:05:45.396Z,2.80
2023-03-02T05:06:45.298Z,2.20
2023-03-02T05:07:45.295Z,2.60
2023-03-02T05:08:45.273Z,2.00
2023-03-02T05:09:45.263Z,2.50
2023-03-02T05:10:45.288Z,2.20
2023-03-02T05:11:45.275Z,1.80
2023-03-02T05:12:45.229Z,2.30
2023-03-02T05:13:45.225Z,2.00
2023-03-02T05:14:45.898Z,3.70
2023-03-02T05:15:45.287Z,1.70
2023-03-02T05:16:45.184Z,3.00
2023-03-02T05:17:45.225Z,2.90
2023-03-02T05:18:45.171Z,2.40
2023-03-02T05:19:45.158Z,1.30
2023-03-02T05:20:45.185Z,1.70
2023-03-02T05:21:45.128Z,4.50
2023-03-02T05:22:45.122Z,1.90
2023-03-02T05:23:45.130Z,2.60
2023-03-02T05:24:45.098Z,2.20
2023-03-02T05:25:45.164Z,3.40
2023-03-02T05:26:45.077Z,1.50
2023-03-02T05:27:45.086Z,1.50
2023-03-02T05:28:45.055Z,2.40
2023-03-02T05:29:45.063Z,3.10
2023-03-02T05:30:45.030Z,1.70
2023-03-02T05:31:45.104Z,1.70
2023-03-02T05:32:45.012Z,1.90
2023-03-02T05:33:45.017Z,1.50
2023-03-02T05:34:44.990Z,3.50
2023-03-02T05:35:45.053Z,1.90
2023-03-02T05:36:44.984Z,2.80
2023-03-02T05:37:45.001Z,2.10
2023-03-02T05:38:44.950Z,2.60
2023-03-02T05:39:44.934Z,1.40
2023-03-02T05:40:44.925Z,2.00
2023-03-02T05:41:44.925Z,2.60
2023-03-02T05:42:44.906Z,2.20
2023-03-02T05:43:44.925Z,2.90
2023-03-02T05:44:44.894Z,2.30
2023-03-02T05:45:44.887Z,1.80
2023-03-02T05:46:44.933Z,2.60
2023-03-02T05:47:44.861Z,2.20
2023-03-02T05:48:44.834Z,2.10
2023-03-02T05:49:44.853Z,1.90
2023-03-02T05:50:44.831Z,2.70
2023-03-02T05:51:44.797Z,1.90
2023-03-02T05:52:44.788Z,2.10
2023-03-02T05:53:44.785Z,2.10
2023-03-02T05:54:44.767Z,2.50
2023-03-02T05:55:44.809Z,2.60
2023-03-02T05:56:44.759Z,1.80
2023-03-02T05:57:44.736Z,1.90
2023-03-02T05:58:44.732Z,1.50
2023-03-02T05:59:44.730Z,2.00
2023-03-02T06:00:44.698Z,1.60
2023-03-02T06:01:44.776Z,2.20
2023-03-02T06:02:44.695Z,1.60
2023-03-02T06:03:44.660Z,2.00
2023-03-02T06:04:44.651Z,2.70
2023-03-02T06:05:44.647Z,2.00
2023-03-02T06:06:44.642Z,2.20
2023-03-02T06:07:44.645Z,3.40
2023-03-02T06:08:44.611Z,1.50
2023-03-02T06:09:44.594Z,2.10
2023-03-02T06:10:44.601Z,2.00
2023-03-02T06:11:44.577Z,2.60
2023-03-02T06:12:44.577Z,2.00
2023-03-02T06:13:44.603Z,3.20
2023-03-02T06:14:44.582Z,2.60
2023-03-02T06:15:44.555Z,2.00
2023-03-02T06:16:44.558Z,2.20
2023-03-02T06:17:44.505Z,2.60
2023-03-02T06:18:44.541Z,2.10
2023-03-02T06:19:44.535Z,1.50
2023-03-02T06:20:44.493Z,2.20
2023-03-02T06:21:44.459Z,2.50
2023-03-02T06:22:44.453Z,2.90
2023-03-02T06:23:44.436Z,2.00
2023-03-02T06:24:44.431Z,3.00
2023-03-02T06:25:44.471Z,3.10
2023-03-02T06:26:44.410Z,2.40
2023-03-02T06:27:44.395Z,2.00
2023-03-02T06:28:52.662Z,2.30
2023-03-02T06:29:45.372Z,2.20
2023-03-02T06:30:44.385Z,1.60
2023-03-02T06:31:44.468Z,1.50
2023-03-02T06:32:44.436Z,1.80
2023-03-02T06:33:44.334Z,1.80
2023-03-02T06:34:44.324Z,2.50
2023-03-02T06:35:44.495Z,1.50
2023-03-02T06:36:44.320Z,2.00
2023-03-02T06:37:44.563Z,1.80
2023-03-02T06:38:44.279Z,1.80
2023-03-02T06:39:44.266Z,1.20
2023-03-02T06:40:44.260Z,2.20
2023-03-02T06:41:44.275Z,1.30
2023-03-02T06:42:44.257Z,2.60
2023-03-02T06:43:44.257Z,2.60
2023-03-02T06:44:44.234Z,2.70
2023-03-02T06:45:44.230Z,2.20
2023-03-02T06:46:44.197Z,3.00
2023-03-02T06:47:44.307Z,2.70
2023-03-02T06:48:44.176Z,2.40
2023-03-02T06:49:44.212Z,2.80
2023-03-02T06:50:44.150Z,2.10
2023-03-02T06:51:44.135Z,1.80
2023-03-02T06:52:44.159Z,2.80
2023-03-02T06:53:44.121Z,3.30
2023-03-02T06:54:44.131Z,3.30
2023-03-02T06:55:44.090Z,3.70
2023-03-02T06:56:44.086Z,1.70
2023-03-02T06:57:44.125Z,3.40
2023-03-02T06:58:44.066Z,3.60
2023-03-02T06:59:44.051Z,2.60
2023-03-02T07:00:44.061Z,12.20
2023-03-02T07:01:44.092Z,9.30
2023-03-02T07:02:44.019Z,2.50
2023-03-02T07:03:44.066Z,9.90
2023-03-02T07:04:44.002Z,4.00
2023-03-02T07:05:46.146Z,126.40
2023-03-02T07:06:43.979Z,157.10
2023-03-02T07:07:43.959Z,130.30
2023-03-02T07:08:43.951Z,80.40
2023-03-02T07:09:43.963Z,38.10
2023-03-02T07:10:43.934Z,3.70
2023-03-02T07:11:43.928Z,2.30
2023-03-02T07:12:43.912Z,7.40
2023-03-02T07:13:43.894Z,58.90
2023-03-02T07:14:43.895Z,29.10
2023-03-02T07:15:43.903Z,39.90
2023-03-02T07:16:43.882Z,95.90
2023-03-02T07:17:43.863Z,8.40
2023-03-02T07:18:43.843Z,2.30
2023-03-02T07:19:43.852Z,3.70
2023-03-02T07:20:43.836Z,3.10
2023-03-02T07:21:43.857Z,1.70
2023-03-02T07:22:43.803Z,2.20
2023-03-02T07:23:43.785Z,2.90
2023-03-02T07:24:45.041Z,1.70
2023-03-02T07:25:43.785Z,1.00
2023-03-02T07:26:43.759Z,2.10
2023-03-02T07:27:43.774Z,1.80
2023-03-02T07:28:43.734Z,2.20
2023-03-02T07:29:43.724Z,1.60
2023-03-02T07:30:43.780Z,2.70
2023-03-02T07:31:43.713Z,1.50
2023-03-02T07:32:43.700Z,2.30
2023-03-02T07:33:43.722Z,2.80
2023-03-02T07:34:43.679Z,1.70
2023-03-02T07:35:43.718Z,1.80
2023-03-02T07:36:43.648Z,1.80
2023-03-02T07:37:43.642Z,3.50
2023-03-02T07:38:43.626Z,2.40
2023-03-02T07:39:43.640Z,2.80
2023-03-02T07:40:43.611Z,5.40
2023-03-02T07:41:43.616Z,6.60
2023-03-02T07:42:43.585Z,2.30
2023-03-02T07:43:43.581Z,1.50
2023-03-02T07:44:43.562Z,2.30
2023-03-02T07:45:43.592Z,1.80
2023-03-02T07:46:43.593Z,1.80
2023-03-02T07:47:43.529Z,2.80
2023-03-02T07:48:43.526Z,1.50
2023-03-02T07:49:43.507Z,1.70
2023-03-02T07:50:43.500Z,1.80
2023-03-02T07:51:43.538Z,1.70
2023-03-02T07:52:43.479Z,2.40
2023-03-02T07:53:43.470Z,2.10
2023-03-02T07:54:43.461Z,2.20
2023-03-02T07:55:43.441Z,2.20
2023-03-02T07:56:43.446Z,2.00
2023-03-02T07:57:43.460Z,2.50
2023-03-02T07:58:43.409Z,1.30
2023-03-02T07:59:43.402Z,1.60
2023-03-02T08:00:43.391Z,2.30
2023-03-02T08:01:43.478Z,2.20
2023-03-02T08:02:43.411Z,3.50
2023-03-02T08:03:43.376Z,1.10
2023-03-02T08:04:43.364Z,1.90
2023-03-02T08:05:43.331Z,1.30
2023-03-02T08:06:43.383Z,2.40
2023-03-02T08:07:43.383Z,1.90
2023-03-02T08:08:43.333Z,1.20
2023-03-02T08:09:43.326Z,1.70
2023-03-02T08:10:43.280Z,1.10
2023-03-02T08:11:43.301Z,1.80
2023-03-02T08:12:43.264Z,1.60
2023-03-02T08:13:43.266Z,3.20
2023-03-02T08:14:43.236Z,2.30
2023-03-02T08:15:43.276Z,3.10
2023-03-02T08:16:43.277Z,1.20
2023-03-02T08:17:43.204Z,1.90
2023-03-02T08:18:43.196Z,1.90
2023-03-02T08:19:43.194Z,1.40
2023-03-02T08:20:43.183Z,1.70
2023-03-02T08:21:43.206Z,2.40
2023-03-02T08:22:43.174Z,2.50
2023-03-02T08:23:43.251Z,1.40
2023-03-02T08:24:43.131Z,2.50
2023-03-02T08:25:43.118Z,2.00
2023-03-02T08:26:43.109Z,2.50
2023-03-02T08:27:43.140Z,2.20
2023-03-02T08:28:43.092Z,3.20
2023-03-02T08:29:43.077Z,1.70
2023-03-02T08:30:43.068Z,1.60
2023-03-02T08:31:43.123Z,2.50
2023-03-02T08:32:43.090Z,1.70
2023-03-02T08:33:43.074Z,2.90
2023-03-02T08:34:43.028Z,2.60
2023-03-02T08:35:43.050Z,2.90
2023-03-02T08:36:43.000Z,2.40
2023-03-02T08:37:42.987Z,1.50
2023-03-02T08:38:42.996Z,1.50
2023-03-02T08:39:43.024Z,2.50
2023-03-02T08:40:42.967Z,2.40
2023-03-02T08:41:42.960Z,1.90
2023-03-02T08:42:42.937Z,1.40
2023-03-02T08:43:42.927Z,2.10
2023-03-02T08:44:42.944Z,1.60
2023-03-02T08:45:42.994Z,2.30
2023-03-02T08:46:42.896Z,3.10
2023-03-02T08:47:42.888Z,1.70
2023-03-02T08:48:42.870Z,1.80
2023-03-02T08:49:42.857Z,2.70
2023-03-02T08:50:42.850Z,1.30
2023-03-02T08:51:42.850Z,1.90
2023-03-02T08:52:42.852Z,2.40
2023-03-02T08:53:42.806Z,1.90
2023-03-02T08:54:42.865Z,3.20
2023-03-02T08:55:42.809Z,2.30
2023-03-02T08:56:42.779Z,1.80
2023-03-02T08:57:42.785Z,1.60
2023-03-02T08:58:42.767Z,2.00
2023-03-02T08:59:42.739Z,2.40
2023-03-02T09:00:42.739Z,1.80
2023-03-02T09:01:42.800Z,1.90
2023-03-02T09:02:42.710Z,2.10
2023-03-02T09:03:42.713Z,1.80
2023-03-02T09:04:42.774Z,1.90
2023-03-02T09:05:42.675Z,1.50
2023-03-02T09:06:42.705Z,2.00
2023-03-02T09:07:42.655Z,2.90
2023-03-02T09:08:42.641Z,1.80
2023-03-02T09:09:42.643Z,1.50
2023-03-02T09:10:42.633Z,2.50
2023-03-02T09:11:42.653Z,2.00
2023-03-02T09:12:42.602Z,2.00
2023-03-02T09:13:42.587Z,3.00
2023-03-02T09:14:42.601Z,1.90
2023-03-02T09:15:42.591Z,2.60
2023-03-02T09:16:42.645Z,2.50
2023-03-02T09:17:42.550Z,1.70
2023-03-02T09:18:42.535Z,1.40
2023-03-02T09:19:44.444Z,2.60
2023-03-02T09:20:42.527Z,1.50
2023-03-02T09:21:42.520Z,2.10
2023-03-02T09:22:42.487Z,2.50
2023-03-02T09:23:42.482Z,1.80
2023-03-02T09:24:42.469Z,1.30
2023-03-02T09:25:43.734Z,2.40
2023-03-02T09:26:42.468Z,1.90
2023-03-02T09:27:42.466Z,1.80
2023-03-02T09:28:42.426Z,1.80
2023-03-02T09:29:42.420Z,2.10
2023-03-02T09:30:42.413Z,1.60
2023-03-02T09:31:42.503Z,2.10
2023-03-02T09:32:42.563Z,2.30
2023-03-02T09:33:42.420Z,1.90
2023-03-02T09:34:42.366Z,2.50
2023-03-02T09:35:42.352Z,2.90
2023-03-02T09:36:42.341Z,2.50
2023-03-02T09:37:44.389Z,1.60
2023-03-02T09:38:42.326Z,1.90
2023-03-02T09:39:42.377Z,2.00
2023-03-02T09:40:42.296Z,1.90
2023-03-02T09:41:42.291Z,1.30
2023-03-02T09:42:44.404Z,3.50
2023-03-02T09:43:42.290Z,2.20
2023-03-02T09:44:42.258Z,2.50
2023-03-02T09:45:42.309Z,2.30
2023-03-02T09:46:42.232Z,1.80
2023-03-02T09:47:42.225Z,2.40
2023-03-02T09:48:42.210Z,2.20
2023-03-02T09:49:42.215Z,3.10
2023-03-02T09:50:42.196Z,1.90
2023-03-02T09:51:42.199Z,3.40
2023-03-02T09:52:42.163Z,2.00
2023-03-02T09:53:42.162Z,1.60
2023-03-02T09:54:42.191Z,1.40
2023-03-02T09:55:42.136Z,1.80
2023-03-02T09:56:42.130Z,2.20
2023-03-02T09:57:42.152Z,2.40
2023-03-02T09:58:42.118Z,1.70
2023-03-02T09:59:42.119Z,3.10
2023-03-02T10:00:42.107Z,2.70
2023-03-02T10:01:42.065Z,2.40
2023-03-02T10:02:42.185Z,1.70
2023-03-02T10:03:42.208Z,2.90
2023-03-02T10:04:42.085Z,2.20
2023-03-02T10:05:42.024Z,2.30
2023-03-02T10:06:42.033Z,1.60
2023-03-02T10:07:41.999Z,1.70
2023-03-02T10:08:41.994Z,2.70
2023-03-02T10:09:42.026Z,1.60
2023-03-02T10:10:41.967Z,2.70
2023-03-02T10:11:41.956Z,2.20
2023-03-02T10:12:41.961Z,2.30
2023-03-02T10:13:41.933Z,1.50
2023-03-02T10:14:41.940Z,3.30
2023-03-02T10:15:42.069Z,2.00
2023-03-02T10:16:41.959Z,1.80
2023-03-02T10:17:41.902Z,1.50
2023-03-02T10:18:41.885Z,1.90
2023-03-02T10:19:41.866Z,3.10
2023-03-02T10:20:41.872Z,1.50
2023-03-02T10:21:41.856Z,3.40
2023-03-02T10:22:41.845Z,1.60
2023-03-02T10:23:41.830Z,1.40
2023-03-02T10:24:41.816Z,1.60
2023-03-02T10:25:41.803Z,1.90
2023-03-02T10:26:41.814Z,1.40
2023-03-02T10:27:41.872Z,1.90
2023-03-02T10:28:41.772Z,1.50
2023-03-02T10:29:41.755Z,1.90
2023-03-02T10:30:41.792Z,1.30
2023-03-02T10:31:41.755Z,1.70
2023-03-02T10:32:41.744Z,3.30
2023-03-02T10:33:41.736Z,1.70
2023-03-02T10:34:41.707Z,2.60
2023-03-02T10:35:41.755Z,2.00
2023-03-02T10:36:41.686Z,1.50
2023-03-02T10:37:41.701Z,0.90
2023-03-02T10:38:41.673Z,2.30
2023-03-02T10:39:41.676Z,2.00
2023-03-02T10:40:41.657Z,1.90
2023-03-02T10:41:41.635Z,1.20
2023-03-02T10:42:41.623Z,3.10
2023-03-02T10:43:41.605Z,2.10
2023-03-02T10:44:41.600Z,1.30
2023-03-02T10:45:41.597Z,1.60
2023-03-02T10:46:41.651Z,1.60
2023-03-02T10:47:41.586Z,1.30
2023-03-02T10:48:41.576Z,2.40
2023-03-02T10:49:41.544Z,1.20
2023-03-02T10:50:41.532Z,1.60
2023-03-02T10:51:41.538Z,1.60
2023-03-02T10:52:46.130Z,1.90
2023-03-02T10:53:42.494Z,2.20
2023-03-02T10:54:41.498Z,1.50
2023-03-02T10:55:41.472Z,0.90
2023-03-02T10:56:41.463Z,1.20
2023-03-02T10:57:41.477Z,2.10
2023-03-02T10:58:41.457Z,1.70
2023-03-02T10:59:41.432Z,1.70
2023-03-02T11:00:41.422Z,2.50
2023-03-02T11:01:41.432Z,1.50
2023-03-02T11:02:41.411Z,1.60
2023-03-02T11:03:41.412Z,2.30
2023-03-02T11:04:41.421Z,1.60
2023-03-02T11:05:41.384Z,1.60
2023-03-02T11:06:41.356Z,1.20
2023-03-02T11:07:41.342Z,1.50
2023-03-02T11:08:41.346Z,1.00
2023-03-02T11:09:41.338Z,3.30
2023-03-02T11:10:41.336Z,1.90
2023-03-02T11:11:41.328Z,1.60
2023-03-02T11:12:41.290Z,1.80
2023-03-02T11:13:41.278Z,1.40
2023-03-02T11:14:41.267Z,1.40
2023-03-02T11:15:41.326Z,1.20
2023-03-02T11:16:41.260Z,3.40
2023-03-02T11:17:41.234Z,1.40
2023-03-02T11:18:41.226Z,2.10
2023-03-02T11:19:41.243Z,1.20
2023-03-02T11:20:41.206Z,1.00
2023-03-02T11:21:41.246Z,2.10
2023-03-02T11:22:41.192Z,1.80
2023-03-02T11:23:41.187Z,4.20
2023-03-02T11:24:41.159Z,1.50
2023-03-02T11:25:41.146Z,2.40
2023-03-02T11:26:41.135Z,2.40
2023-03-02T11:27:41.157Z,1.40
2023-03-02T11:28:41.114Z,2.00
2023-03-02T11:29:41.104Z,2.40
2023-03-02T11:30:41.100Z,1.50
2023-03-02T11:31:41.121Z,1.60
2023-03-02T11:32:41.256Z,3.40
2023-03-02T11:33:41.161Z,1.30
2023-03-02T11:34:41.053Z,1.50
2023-03-02T11:35:41.111Z,1.20
2023-03-02T11:36:41.027Z,0.80
2023-03-02T11:37:41.008Z,3.30
2023-03-02T11:38:41.002Z,1.40
2023-03-02T11:39:46.443Z,1.90
2023-03-02T11:40:43.051Z,1.40
2023-03-02T11:41:40.966Z,1.50
2023-03-02T11:42:40.984Z,1.70
2023-03-02T11:43:40.944Z,1.60
2023-03-02T11:44:40.951Z,1.60
2023-03-02T11:45:40.936Z,1.80
2023-03-02T11:46:40.993Z,1.40
2023-03-02T11:47:40.920Z,1.70
2023-03-02T11:48:40.896Z,1.00
2023-03-02T11:49:40.887Z,1.40
2023-03-02T11:50:40.881Z,1.70
2023-03-02T11:51:50.013Z,2.20
2023-03-02T11:52:41.861Z,1.50
2023-03-02T11:53:40.888Z,1.30
2023-03-02T11:54:40.842Z,2.20
2023-03-02T11:55:40.815Z,0.90
2023-03-02T11:56:40.821Z,1.70
2023-03-02T11:57:40.813Z,0.90
2023-03-02T11:58:40.791Z,1.10
2023-03-02T11:59:40.771Z,2.60
2023-03-02T12:00:40.780Z,1.30
2023-03-02T12:01:40.771Z,1.50
2023-03-02T12:02:40.740Z,1.50
2023-03-02T12:03:40.746Z,0.90
2023-03-02T12:04:40.742Z,1.40
2023-03-02T12:05:40.809Z,1.80
2023-03-02T12:06:40.699Z,1.30
2023-03-02T12:07:40.710Z,1.30
2023-03-02T12:08:40.679Z,2.40
2023-03-02T12:09:40.690Z,2.00
2023-03-02T12:10:40.667Z,1.10
2023-03-02T12:11:40.647Z,1.30
2023-03-02T12:12:40.629Z,1.70
2023-03-02T12:13:40.629Z,0.90
2023-03-02T12:14:40.647Z,1.30
2023-03-02T12:15:40.622Z,1.10
2023-03-02T12:16:40.645Z,1.00
2023-03-02T12:17:40.603Z,1.30
2023-03-02T12:18:40.565Z,1.30
2023-03-02T12:19:40.564Z,1.60
2023-03-02T12:20:40.560Z,1.00
2023-03-02T12:21:40.577Z,1.70
2023-03-02T12:22:40.557Z,0.70
2023-03-02T12:23:40.668Z,1.10
2023-03-02T12:24:40.502Z,0.70
2023-03-02T12:25:40.515Z,1.10
2023-03-02T12:26:40.478Z,1.40
2023-03-02T12:27:40.526Z,1.60
2023-03-02T12:28:40.459Z,1.20
2023-03-02T12:29:40.442Z,1.50
2023-03-02T12:30:40.438Z,0.90
2023-03-02T12:31:40.487Z,1.10
2023-03-02T12:32:40.505Z,1.00
2023-03-02T12:33:40.447Z,0.70
2023-03-02T12:34:40.394Z,0.80
2023-03-02T12:35:40.415Z,2.00
2023-03-02T12:36:40.382Z,1.50
2023-03-02T12:37:40.366Z,1.10
2023-03-02T12:38:40.394Z,1.00
2023-03-02T12:39:40.360Z,1.20
2023-03-02T12:40:40.334Z,0.90
2023-03-02T12:41:40.312Z,1.40
2023-03-02T12:42:40.305Z,1.10
2023-03-02T12:43:40.303Z,1.30
2023-03-02T12:44:40.283Z,0.90
2023-03-02T12:45:40.318Z,1.80
2023-03-02T12:46:40.260Z,1.50
2023-03-02T12:47:40.433Z,0.80
2023-03-02T12:48:40.575Z,1.00
2023-03-02T12:49:40.236Z,1.10
2023-03-02T12:50:40.214Z,1.90
2023-03-02T12:51:40.334Z,1.10
2023-03-02T12:52:40.308Z,0.90
2023-03-02T12:53:40.196Z,1.00
2023-03-02T12:54:40.175Z,1.30
2023-03-02T12:55:40.193Z,1.50
2023-03-02T12:56:40.150Z,0.80
2023-03-02T12:57:40.173Z,0.90
2023-03-02T12:58:40.132Z,1.10
2023-03-02T12:59:40.129Z,1.80
2023-03-02T13:00:40.144Z,1.10
2023-03-02T13:01:40.108Z,1.30
2023-03-02T13:02:40.141Z,1.40
2023-03-02T13:03:40.190Z,1.00
2023-03-02T13:04:40.071Z,1.50
2023-03-02T13:05:40.051Z,1.30
2023-03-02T13:06:40.057Z,1.30
2023-03-02T13:07:40.038Z,1.30
2023-03-02T13:08:40.066Z,1.70
2023-03-02T13:09:44.842Z,1.20
2023-03-02T13:10:41.151Z,1.80
2023-03-02T13:11:40.030Z,2.10
2023-03-02T13:12:39.986Z,0.90
2023-03-02T13:13:40.025Z,2.00
2023-03-02T13:14:39.971Z,1.60
2023-03-02T13:15:39.936Z,1.60
2023-03-02T13:16:39.953Z,1.30
2023-03-02T13:17:39.928Z,0.70
2023-03-02T13:18:39.929Z,2.70